This is the latest recevied weather packets stored in our database for station/object W4MLN-1. If no packets are shown the sender has not sent any weather packets the latest 10 day(s).
| Time | Temp. | Humidity | Pressure | Rain* | Wind** | Luminosity | Snow |
|---|---|---|---|---|---|---|---|
| 1777903760 | 13.33° C | 57% | 1017.7 hPa | 0 mm | - | 269 W/m² | - |
| 1777903457 | 13.33° C | 56% | 1017.5 hPa | 0 mm | - | 490 W/m² | - |
| 1777903157 | 13.33° C | 57% | 1017.5 hPa | 0 mm | - | 165 W/m² | - |
| 1777902857 | 13.33° C | 57% | 1017.4 hPa | 0 mm | - | 283 W/m² | - |
| 1777902557 | 13.33° C | 57% | 1017.3 hPa | 0 mm | - | 582 W/m² | - |
| 1777902257 | 13.33° C | 57% | 1017.4 hPa | 0 mm | - | 473 W/m² | - |
| 1777901957 | 12.78° C | 59% | 1017.3 hPa | 0 mm | - | 565 W/m² | - |
| 1777901657 | 12.22° C | 60% | 1017.3 hPa | 0 mm | - | 506 W/m² | - |
| 1777901357 | 11.67° C | 63% | 1017.2 hPa | 0 mm | - | 476 W/m² | - |
| 1777901057 | 10.56° C | 68% | 1017.1 hPa | 0 mm | - | 242 W/m² | - |
| 1777900757 | 9.44° C | 71% | 1017.1 hPa | 0 mm | - | 127 W/m² | - |
| 1777900456 | 8.33° C | 74% | 1017 hPa | 0 mm | - | 159 W/m² | - |
| 1777900156 | 7.78° C | 78% | 1017 hPa | 0 mm | - | 133 W/m² | - |
| 1777899855 | 6.67° C | 81% | 1017 hPa | 0 mm | - | 142 W/m² | - |
| 1777899556 | 6.11° C | 84% | 1016.9 hPa | 0 mm | - | 130 W/m² | - |
| 1777899256 | 5.56° C | 86% | 1017 hPa | 0 mm | - | 119 W/m² | - |
| 1777898956 | 5° C | 87% | 1016.9 hPa | 0 mm | - | 90 W/m² | - |
| 1777898642 | 4.44° C | 88% | 1016.9 hPa | 0 mm | - | 64 W/m² | - |
| 1777898343 | 3.33° C | 91% | 1016.9 hPa | 0 mm | - | 85 W/m² | - |
| 1777898043 | 3.33° C | 93% | 1016.7 hPa | 0 mm | - | 98 W/m² | - |
| 1777897743 | 2.78° C | 95% | 1016.7 hPa | 0 mm | - | 59 W/m² | - |
| 1777897443 | 2.22° C | 96% | 1016.7 hPa | 0 mm | - | 56 W/m² | - |
| 1777897143 | 2.22° C | 98% | 1016.7 hPa | 0 mm | - | 54 W/m² | - |
| 1777896843 | 1.67° C | 98% | 1016.9 hPa | 0 mm | - | 54 W/m² | - |
| 1777896543 | 1.11° C | 99% | 1016.9 hPa | 0 mm | - | 52 W/m² | - |
* Rain latest hour (hover to see other rain measurements)
** Current wind speed in m/s (hover to see current wind gust speed)